createdAt,value
2018-07-05T00:00:21.339Z,98318.91
2018-07-05T00:03:00.944Z,98325.24
2018-07-05T00:05:40.707Z,98326.29
2018-07-05T00:08:20.597Z,98324.59
2018-07-05T00:11:00.280Z,98318.79
2018-07-05T00:13:40.079Z,98319.04
2018-07-05T00:16:19.834Z,98333.83
2018-07-05T00:18:59.595Z,98350.94
2018-07-05T00:21:39.328Z,98370.64
2018-07-05T00:24:19.059Z,98369.22
2018-07-05T00:26:58.811Z,98371.00
2018-07-05T00:29:38.588Z,98389.57
2018-07-05T00:32:18.262Z,98382.27
2018-07-05T00:34:58.104Z,98389.31
2018-07-05T00:37:37.730Z,98396.59
2018-07-05T00:40:17.422Z,98389.09
2018-07-05T00:42:57.168Z,98389.86
2018-07-05T00:45:36.948Z,98391.45
2018-07-05T00:48:16.685Z,98395.13
2018-07-05T00:50:56.464Z,98402.05
2018-07-05T00:53:36.338Z,98413.88
2018-07-05T00:56:16.214Z,98410.13
2018-07-05T00:58:56.118Z,98405.34
2018-07-05T01:01:35.851Z,98405.66
2018-07-05T01:04:15.620Z,98407.24
2018-07-05T01:06:55.313Z,98411.44
2018-07-05T01:09:35.078Z,98424.70
2018-07-05T01:12:15.051Z,98423.52
2018-07-05T01:14:54.933Z,98427.13
2018-07-05T01:17:35.008Z,98431.81
2018-07-05T01:20:14.965Z,98429.83
2018-07-05T01:22:54.709Z,98433.67
2018-07-05T01:25:34.543Z,98434.91
2018-07-05T01:28:14.408Z,98442.45
2018-07-05T01:30:54.273Z,98442.09
2018-07-05T01:33:34.010Z,98445.28
2018-07-05T01:36:13.809Z,98440.56
2018-07-05T01:38:53.646Z,98441.67
2018-07-05T01:41:33.338Z,98442.40
2018-07-05T01:44:13.083Z,98443.05
2018-07-05T01:46:52.842Z,98447.84
2018-07-05T01:49:32.667Z,98445.53
2018-07-05T01:52:12.790Z,98452.74
2018-07-05T01:54:53.232Z,98447.95
2018-07-05T02:02:54.640Z,98432.81
2018-07-05T02:05:34.985Z,98436.89
2018-07-05T02:08:14.672Z,98439.19
2018-07-05T02:10:54.470Z,98437.53
2018-07-05T02:13:34.402Z,98439.84
2018-07-05T02:16:14.172Z,98445.58
2018-07-05T02:18:53.943Z,98453.35
2018-07-05T02:21:33.918Z,98455.55
2018-07-05T02:24:13.648Z,98460.16
2018-07-05T02:26:53.388Z,98454.16
2018-07-05T02:29:33.129Z,98451.23
2018-07-05T02:32:12.870Z,98449.33
2018-07-05T02:34:52.799Z,98455.22
2018-07-05T02:37:37.938Z,98450.86
2018-07-05T02:40:17.686Z,98456.00
2018-07-05T02:42:57.414Z,98453.56
2018-07-05T02:45:37.163Z,98446.98
2018-07-05T02:48:16.945Z,98447.13
2018-07-05T02:50:57.238Z,98446.50
2018-07-05T02:53:37.003Z,98435.46
2018-07-05T02:56:16.915Z,98425.13
2018-07-05T02:58:56.590Z,98416.42
2018-07-05T03:01:36.383Z,98421.30
2018-07-05T03:04:16.074Z,98410.55
2018-07-05T03:06:55.679Z,98421.42
2018-07-05T03:09:35.362Z,98419.47
2018-07-05T03:12:14.995Z,98423.23
2018-07-05T03:14:54.811Z,98423.59
2018-07-05T03:17:34.609Z,98420.73
2018-07-05T03:20:14.476Z,98428.30
2018-07-05T03:22:54.290Z,98429.31
2018-07-05T03:25:34.055Z,98427.07
2018-07-05T03:28:13.860Z,98435.72
2018-07-05T03:30:53.533Z,98438.50
2018-07-05T03:33:33.237Z,98441.22
2018-07-05T03:36:12.910Z,98442.94
2018-07-05T03:38:52.834Z,98458.17
2018-07-05T03:41:32.518Z,98446.22
2018-07-05T03:44:12.271Z,98444.61
2018-07-05T03:46:52.100Z,98435.91
2018-07-05T03:49:31.683Z,98430.45
2018-07-05T03:52:11.624Z,98431.11
2018-07-05T03:54:51.624Z,98419.92
2018-07-05T03:57:31.252Z,98409.60
2018-07-05T04:00:11.067Z,98403.44
2018-07-05T04:02:50.855Z,98409.58
2018-07-05T04:05:30.760Z,98416.41
2018-07-05T04:08:10.575Z,98414.06
2018-07-05T04:10:50.386Z,98417.13
2018-07-05T04:13:30.067Z,98430.35
2018-07-05T04:16:10.362Z,98439.46
2018-07-05T04:18:50.226Z,98441.85
2018-07-05T04:21:30.018Z,98442.56
2018-07-05T04:24:13.216Z,98442.17
2018-07-05T04:26:53.148Z,98433.22
2018-07-05T04:29:32.841Z,98427.12
2018-07-05T04:32:12.679Z,98425.58
2018-07-05T04:34:52.427Z,98424.89
2018-07-05T04:37:32.151Z,98417.77
2018-07-05T04:40:11.890Z,98416.36
2018-07-05T04:42:51.751Z,98410.78
2018-07-05T04:45:31.901Z,98408.49
2018-07-05T04:48:11.842Z,98399.67
2018-07-05T04:50:51.543Z,98389.85
2018-07-05T04:53:31.367Z,98384.38
2018-07-05T04:56:11.344Z,98376.68
2018-07-05T04:58:51.324Z,98377.64
2018-07-05T05:01:30.899Z,98374.03
2018-07-05T05:04:10.583Z,98379.52
2018-07-05T05:06:50.370Z,98371.02
2018-07-05T05:09:30.218Z,98367.70
2018-07-05T05:12:09.837Z,98367.07
2018-07-05T05:14:49.564Z,98369.92
2018-07-05T05:17:29.363Z,98370.59
2018-07-05T05:20:09.026Z,98366.71
2018-07-05T05:22:49.006Z,98365.22
2018-07-05T05:25:28.702Z,98367.00
2018-07-05T05:28:08.467Z,98358.90
2018-07-05T05:30:48.300Z,98352.70
2018-07-05T05:33:28.049Z,98348.59
2018-07-05T05:36:07.742Z,98350.30
2018-07-05T05:38:47.462Z,98359.71
2018-07-05T05:41:29.965Z,98365.43
2018-07-05T05:44:09.639Z,98355.37
2018-07-05T05:46:49.367Z,98353.63
2018-07-05T05:49:29.149Z,98366.77
2018-07-05T05:52:09.026Z,98374.98
2018-07-05T05:54:48.789Z,98373.28
2018-07-05T05:57:28.487Z,98378.30
2018-07-05T06:00:08.376Z,98384.95
2018-07-05T06:02:48.196Z,98393.13
2018-07-05T06:05:28.045Z,98400.10
2018-07-05T06:08:07.863Z,98399.45
2018-07-05T06:10:47.507Z,98398.17
2018-07-05T06:13:28.168Z,98392.84
2018-07-05T06:16:07.873Z,98397.73
2018-07-05T06:18:47.516Z,98403.11
2018-07-05T06:21:27.193Z,98402.33
2018-07-05T06:24:07.114Z,98406.53
2018-07-05T06:26:46.747Z,98414.41
2018-07-05T06:29:27.166Z,98416.69
2018-07-05T06:32:07.006Z,98414.49
2018-07-05T06:34:46.842Z,98422.72
2018-07-05T06:37:26.589Z,98422.02
2018-07-05T06:40:06.151Z,98434.20
2018-07-05T06:42:45.901Z,98428.89
2018-07-05T06:45:25.700Z,98432.88
2018-07-05T06:48:05.610Z,98436.06
2018-07-05T06:50:45.363Z,98444.14
2018-07-05T06:53:25.108Z,98445.23
2018-07-05T06:56:04.948Z,98453.00
2018-07-05T06:58:44.671Z,98450.09
2018-07-05T07:01:24.481Z,98463.60
2018-07-05T07:04:04.099Z,98464.13
2018-07-05T07:06:43.707Z,98476.56
2018-07-05T07:09:24.543Z,98478.70
2018-07-05T07:12:04.301Z,98482.65
2018-07-05T07:14:44.091Z,98484.14
2018-07-05T07:17:23.908Z,98490.14
2018-07-05T07:20:03.932Z,98492.72
2018-07-05T07:22:43.609Z,98491.55
2018-07-05T07:25:23.152Z,98491.55
2018-07-05T07:28:02.934Z,98494.66
2018-07-05T07:30:42.688Z,98492.90
2018-07-05T07:33:22.375Z,98498.17
2018-07-05T07:36:02.119Z,98502.00
2018-07-05T07:38:41.883Z,98507.92
2018-07-05T07:41:21.956Z,98511.02
2018-07-05T07:43:49.191Z,98516.06
2018-07-05T07:46:16.442Z,98512.72
2018-07-05T07:48:43.857Z,98520.59
2018-07-05T07:51:11.168Z,98524.20
2018-07-05T07:53:38.446Z,98524.59
2018-07-05T07:56:05.979Z,98524.72
2018-07-05T07:58:33.238Z,98526.27
2018-07-05T08:01:00.498Z,98524.53
2018-07-05T08:03:27.746Z,98524.24
2018-07-05T08:05:54.998Z,98533.92
2018-07-05T08:08:22.260Z,98525.85
2018-07-05T08:10:49.526Z,98528.22
2018-07-05T08:13:16.811Z,98540.39
2018-07-05T08:15:44.043Z,98538.92
2018-07-05T08:18:11.322Z,98535.95
2018-07-05T08:20:38.554Z,98534.31
2018-07-05T08:23:05.826Z,98524.82
2018-07-05T08:25:33.114Z,98532.72
2018-07-05T08:28:00.369Z,98533.88
2018-07-05T08:30:27.607Z,98536.91
2018-07-05T08:32:55.078Z,98543.28
2018-07-05T08:35:23.360Z,98543.66
2018-07-05T08:37:50.649Z,98546.39
2018-07-05T08:40:21.541Z,98540.59
2018-07-05T08:42:49.255Z,98551.45
2018-07-05T08:45:16.924Z,98547.14
2018-07-05T08:47:44.205Z,98546.06
2018-07-05T08:50:11.449Z,98551.98
2018-07-05T08:52:38.750Z,98547.27
2018-07-05T08:55:06.018Z,98546.11
2018-07-05T08:57:37.140Z,98545.45
2018-07-05T09:00:04.371Z,98546.27
2018-07-05T09:02:31.631Z,98546.48
2018-07-05T09:04:58.868Z,98548.89
2018-07-05T09:07:26.254Z,98547.86
2018-07-05T09:09:53.487Z,98548.55
2018-07-05T09:12:20.759Z,98551.11
2018-07-05T09:14:48.751Z,98553.53
2018-07-05T09:17:15.998Z,98553.59
2018-07-05T09:19:43.482Z,98555.79
2018-07-05T09:22:10.732Z,98560.53
2018-07-05T09:24:37.990Z,98567.45
2018-07-05T09:27:05.225Z,98572.77
2018-07-05T09:29:32.535Z,98573.09
2018-07-05T09:31:59.839Z,98570.30
2018-07-05T09:34:27.099Z,98564.87
2018-07-05T09:36:54.355Z,98559.98
2018-07-05T09:39:21.619Z,98568.84
2018-07-05T09:41:48.887Z,98573.58
2018-07-05T09:44:16.158Z,98588.16
2018-07-05T09:46:43.394Z,98581.50
2018-07-05T09:49:10.659Z,98580.38
2018-07-05T09:51:37.886Z,98585.44
2018-07-05T09:54:05.142Z,98581.67
2018-07-05T09:56:32.397Z,98588.59
2018-07-05T09:58:59.649Z,98584.55
2018-07-05T10:01:26.900Z,98587.41
2018-07-05T10:03:54.248Z,98581.91
2018-07-05T10:06:21.448Z,98588.43
2018-07-05T10:08:48.702Z,98588.77
2018-07-05T10:11:15.970Z,98589.48
2018-07-05T10:13:43.371Z,98582.28
2018-07-05T10:16:10.486Z,98579.72
2018-07-05T10:18:37.723Z,98582.30
2018-07-05T10:21:04.979Z,98584.67
2018-07-05T10:23:32.231Z,98586.77
2018-07-05T10:25:59.530Z,98579.39
2018-07-05T10:28:26.887Z,98589.95
2018-07-05T10:31:06.587Z,98594.77
2018-07-05T10:33:51.540Z,98594.91
2018-07-05T10:36:18.795Z,98593.72
2018-07-05T10:38:46.030Z,98592.81
2018-07-05T10:41:25.622Z,98579.42
2018-07-05T10:44:05.350Z,98587.93
2018-07-05T10:46:45.164Z,98594.64
2018-07-05T10:49:24.986Z,98590.03
2018-07-05T10:52:04.659Z,98588.59
2018-07-05T10:54:44.586Z,98593.16
2018-07-05T10:57:24.238Z,98587.98
2018-07-05T11:00:04.078Z,98589.31
2018-07-05T11:02:43.786Z,98591.17
2018-07-05T11:05:23.634Z,98589.34
2018-07-05T11:08:03.370Z,98583.16
2018-07-05T11:10:43.269Z,98592.17
2018-07-05T11:13:23.069Z,98587.94
2018-07-05T11:16:02.859Z,98585.02
2018-07-05T11:18:42.770Z,98588.48
2018-07-05T11:21:22.503Z,98584.15
2018-07-05T11:24:02.514Z,98579.27
2018-07-05T11:26:42.299Z,98581.53
2018-07-05T11:29:22.154Z,98583.52
2018-07-05T11:32:06.354Z,98582.73
2018-07-05T11:34:46.102Z,98590.94
2018-07-05T11:37:25.875Z,98588.67
2018-07-05T11:40:07.950Z,98583.30
2018-07-05T11:42:47.798Z,98580.87
2018-07-05T11:45:27.897Z,98577.56
2018-07-05T11:48:07.763Z,98580.30
2018-07-05T11:50:47.562Z,98577.94
2018-07-05T11:53:27.392Z,98580.83
2018-07-05T11:56:07.087Z,98580.99
2018-07-05T11:58:46.894Z,98580.72
2018-07-05T12:01:26.616Z,98569.66
2018-07-05T12:04:06.488Z,98578.56
2018-07-05T12:06:46.180Z,98576.09
2018-07-05T12:09:26.034Z,98575.78
2018-07-05T12:12:05.654Z,98569.27
2018-07-05T12:14:45.436Z,98567.28
2018-07-05T12:17:25.249Z,98555.70
2018-07-05T12:20:05.186Z,98553.63
2018-07-05T12:22:45.166Z,98547.20
2018-07-05T12:25:24.793Z,98554.25
2018-07-05T12:28:04.411Z,98551.63
2018-07-05T12:30:44.124Z,98548.38
2018-07-05T12:33:23.882Z,98545.81
2018-07-05T12:36:03.678Z,98545.83
2018-07-05T12:38:43.695Z,98537.04
2018-07-05T12:41:23.615Z,98539.39
2018-07-05T12:44:03.266Z,98538.75
2018-07-05T12:46:42.975Z,98536.42
2018-07-05T12:49:22.855Z,98538.66
2018-07-05T12:52:02.629Z,98534.59
2018-07-05T12:54:42.346Z,98536.94
2018-07-05T12:57:22.078Z,98544.80
2018-07-05T13:00:01.938Z,98541.26
2018-07-05T13:02:41.638Z,98540.11
2018-07-05T13:05:21.395Z,98536.03
2018-07-05T13:08:01.203Z,98540.29
2018-07-05T13:10:41.010Z,98531.27
2018-07-05T13:13:20.923Z,98537.87
2018-07-05T13:16:00.666Z,98539.96
2018-07-05T13:18:40.448Z,98543.14
2018-07-05T13:21:20.287Z,98546.87
2018-07-05T13:24:00.054Z,98536.97
2018-07-05T13:26:39.778Z,98535.96
2018-07-05T13:29:19.550Z,98541.50
2018-07-05T13:32:00.813Z,98538.56
2018-07-05T13:34:40.430Z,98536.00
2018-07-05T13:37:20.332Z,98532.53
2018-07-05T13:40:00.111Z,98537.59
2018-07-05T13:42:39.850Z,98531.91
2018-07-05T13:45:19.499Z,98531.17
2018-07-05T13:47:59.046Z,98536.09
2018-07-05T13:50:38.829Z,98532.53
2018-07-05T13:53:18.657Z,98532.53
2018-07-05T13:55:58.332Z,98529.43
2018-07-05T13:58:38.138Z,98528.96
2018-07-05T14:01:18.114Z,98526.30
2018-07-05T14:03:57.910Z,98522.23
2018-07-05T14:06:38.110Z,98513.67
2018-07-05T14:09:17.810Z,98511.54
2018-07-05T14:11:57.447Z,98510.69
2018-07-05T14:14:37.363Z,98510.80
2018-07-05T14:17:17.111Z,98504.95
2018-07-05T14:19:56.907Z,98493.16
2018-07-05T14:22:36.809Z,98494.56
2018-07-05T14:25:16.471Z,98496.59
2018-07-05T14:27:56.342Z,98483.28
2018-07-05T14:30:36.003Z,98488.31
2018-07-05T14:33:15.825Z,98479.64
2018-07-05T14:35:55.510Z,98486.40
2018-07-05T14:38:35.345Z,98476.27
2018-07-05T14:41:14.971Z,98474.64
2018-07-05T14:43:54.781Z,98474.34
2018-07-05T14:46:34.571Z,98477.77
2018-07-05T14:49:14.503Z,98481.01
2018-07-05T14:51:54.226Z,98469.20
2018-07-05T14:54:35.058Z,98465.80
2018-07-05T14:57:15.004Z,98463.95
2018-07-05T14:59:54.784Z,98460.89
2018-07-05T15:02:34.690Z,98454.21
2018-07-05T15:05:14.390Z,98456.53
2018-07-05T15:07:54.076Z,98445.81
2018-07-05T15:10:33.667Z,98453.34
2018-07-05T15:13:13.522Z,98459.52
2018-07-05T15:15:53.343Z,98455.09
2018-07-05T15:18:33.346Z,98448.90
2018-07-05T15:21:13.038Z,98451.80
2018-07-05T15:23:52.974Z,98444.52
2018-07-05T15:26:32.951Z,98439.52
2018-07-05T15:29:12.732Z,98441.60
2018-07-05T15:31:52.622Z,98450.41
2018-07-05T15:34:32.544Z,98433.42
2018-07-05T15:37:12.291Z,98439.71
2018-07-05T15:39:52.134Z,98432.59
2018-07-05T15:42:31.829Z,98437.44
2018-07-05T15:45:11.564Z,98437.48
2018-07-05T15:47:51.339Z,98442.57
2018-07-05T15:50:31.163Z,98439.71
2018-07-05T15:53:10.911Z,98431.80
2018-07-05T15:55:50.795Z,98433.40
2018-07-05T15:58:30.711Z,98441.06
2018-07-05T16:01:10.413Z,98443.66
2018-07-05T16:03:50.201Z,98438.07
2018-07-05T16:06:29.999Z,98439.54
2018-07-05T16:09:09.746Z,98432.22
2018-07-05T16:11:49.513Z,98417.61
2018-07-05T16:14:29.422Z,98420.29
2018-07-05T16:17:09.044Z,98419.76
2018-07-05T16:19:48.895Z,98415.21
2018-07-05T16:22:28.753Z,98416.11
2018-07-05T16:25:08.423Z,98414.70
2018-07-05T16:27:47.993Z,98416.21
2018-07-05T16:30:27.577Z,98415.90
2018-07-05T16:33:07.339Z,98419.45
2018-07-05T16:35:47.123Z,98416.44
2018-07-05T16:38:26.909Z,98417.94
2018-07-05T16:41:06.645Z,98422.91
2018-07-05T16:43:46.483Z,98424.16
2018-07-05T16:46:26.160Z,98431.08
2018-07-05T16:49:05.976Z,98434.30
2018-07-05T16:51:45.855Z,98432.52
2018-07-05T16:54:29.836Z,98441.95
2018-07-05T16:57:09.543Z,98448.72
2018-07-05T16:59:49.208Z,98451.45
2018-07-05T17:02:29.176Z,98452.00
2018-07-05T17:05:08.834Z,98458.31
2018-07-05T17:07:48.454Z,98460.52
2018-07-05T17:10:28.207Z,98454.11
2018-07-05T17:13:07.782Z,98451.90
2018-07-05T17:15:47.458Z,98449.58
2018-07-05T17:18:27.245Z,98448.63
2018-07-05T17:21:06.970Z,98441.37
2018-07-05T17:23:46.679Z,98441.72
2018-07-05T17:26:26.462Z,98441.55
2018-07-05T17:29:06.042Z,98445.94
2018-07-05T17:31:46.128Z,98446.63
2018-07-05T17:34:25.834Z,98457.11
2018-07-05T17:37:05.741Z,98459.16
2018-07-05T17:39:45.505Z,98461.13
2018-07-05T17:42:25.387Z,98460.83
2018-07-05T17:45:05.151Z,98465.73
2018-07-05T17:47:44.884Z,98469.19
2018-07-05T17:50:24.732Z,98476.05
2018-07-05T17:53:04.327Z,98475.60
2018-07-05T17:55:44.077Z,98473.75
2018-07-05T17:58:24.114Z,98480.34
2018-07-05T18:01:03.843Z,98484.72
2018-07-05T18:03:43.654Z,98481.38
2018-07-05T18:06:23.430Z,98487.86
2018-07-05T18:09:03.318Z,98486.31
2018-07-05T18:11:43.007Z,98492.89
2018-07-05T18:14:22.646Z,98490.86
2018-07-05T18:17:02.431Z,98491.31
2018-07-05T18:19:42.346Z,98496.70
2018-07-05T18:22:22.118Z,98496.77
2018-07-05T18:25:01.782Z,98502.22
2018-07-05T18:27:44.829Z,98507.35
2018-07-05T18:30:24.614Z,98507.61
2018-07-05T18:33:04.360Z,98515.58
2018-07-05T18:35:44.091Z,98514.03
2018-07-05T18:38:23.866Z,98518.86
2018-07-05T18:41:03.678Z,98523.03
2018-07-05T18:43:43.784Z,98526.88
2018-07-05T18:46:23.458Z,98531.67
2018-07-05T18:49:03.195Z,98528.70
2018-07-05T18:51:42.804Z,98524.08
2018-07-05T18:54:22.606Z,98526.86
2018-07-05T18:57:02.535Z,98532.70
2018-07-05T18:59:42.295Z,98533.10
2018-07-05T19:02:21.966Z,98534.34
2018-07-05T19:05:01.799Z,98541.33
2018-07-05T19:07:41.550Z,98541.27
2018-07-05T19:10:21.571Z,98542.69
2018-07-05T19:13:01.304Z,98539.00
2018-07-05T19:15:41.124Z,98541.38
2018-07-05T19:18:25.423Z,98541.66
2018-07-05T19:21:05.050Z,98533.92
2018-07-05T19:23:44.600Z,98537.34
2018-07-05T19:26:24.446Z,98545.66
2018-07-05T19:29:04.391Z,98535.39
2018-07-05T19:31:44.299Z,98541.20
2018-07-05T19:34:24.135Z,98536.80
2018-07-05T19:37:03.987Z,98541.80
2018-07-05T19:39:43.766Z,98542.69
2018-07-05T19:42:23.538Z,98552.47
2018-07-05T19:45:03.278Z,98547.88
2018-07-05T19:47:43.031Z,98551.77
2018-07-05T19:50:22.811Z,98551.06
2018-07-05T19:53:02.618Z,98551.64
2018-07-05T19:55:42.402Z,98551.81
2018-07-05T19:58:22.274Z,98550.72
2018-07-05T20:01:02.031Z,98558.22
2018-07-05T20:03:41.762Z,98554.48
2018-07-05T20:06:21.526Z,98557.20
2018-07-05T20:09:01.114Z,98556.42
2018-07-05T20:11:45.971Z,98559.53
2018-07-05T20:14:25.548Z,98557.52
2018-07-05T20:17:05.423Z,98557.07
2018-07-05T20:19:45.152Z,98553.56
2018-07-05T20:22:24.955Z,98557.82
2018-07-05T20:25:04.739Z,98557.94
2018-07-05T20:27:44.698Z,98560.39
2018-07-05T20:30:24.526Z,98557.67
2018-07-05T20:33:04.199Z,98566.00
2018-07-05T20:35:44.001Z,98571.41
2018-07-05T20:38:23.723Z,98575.49
2018-07-05T20:41:03.491Z,98580.47
2018-07-05T20:43:43.187Z,98584.16
2018-07-05T20:46:22.994Z,98584.30
2018-07-05T20:49:02.945Z,98582.63
2018-07-05T20:51:42.766Z,98586.44
2018-07-05T20:54:22.773Z,98591.63
2018-07-05T20:57:02.596Z,98591.97
2018-07-05T20:59:42.179Z,98594.92
2018-07-05T21:02:21.974Z,98597.68
2018-07-05T21:05:01.765Z,98598.00
2018-07-05T21:07:41.519Z,98600.78
2018-07-05T21:10:21.249Z,98607.70
2018-07-05T21:13:01.043Z,98601.75
2018-07-05T21:15:40.895Z,98609.91
2018-07-05T21:18:20.693Z,98610.91
2018-07-05T21:21:00.407Z,98611.95
2018-07-05T21:23:40.191Z,98614.81
2018-07-05T21:26:19.965Z,98620.66
2018-07-05T21:28:59.542Z,98618.78
2018-07-05T21:31:39.478Z,98633.78
2018-07-05T21:34:19.386Z,98625.30
2018-07-05T21:36:59.138Z,98627.72
2018-07-05T21:39:38.911Z,98629.14
2018-07-05T21:42:18.864Z,98629.14
2018-07-05T21:44:58.538Z,98633.91
2018-07-05T21:47:38.448Z,98637.67
2018-07-05T21:50:18.419Z,98642.44
2018-07-05T21:52:58.210Z,98635.13
2018-07-05T21:55:37.930Z,98636.34
2018-07-05T21:58:17.718Z,98642.44
2018-07-05T22:00:57.511Z,98640.73
2018-07-05T22:03:37.482Z,98647.09
2018-07-05T22:06:17.336Z,98645.23
2018-07-05T22:08:57.152Z,98643.53
2018-07-05T22:11:37.019Z,98651.68
2018-07-05T22:14:16.928Z,98649.66
2018-07-05T22:17:01.912Z,98654.77
2018-07-05T22:19:47.042Z,98650.18
2018-07-05T22:22:32.234Z,98653.64
2018-07-05T22:25:17.242Z,98650.93
2018-07-05T22:28:02.196Z,98653.73
2018-07-05T22:30:47.209Z,98654.27
2018-07-05T22:33:28.859Z,98658.36
2018-07-05T22:36:08.839Z,98659.34
2018-07-05T22:38:48.494Z,98658.36
2018-07-05T22:41:28.119Z,98654.98
2018-07-05T22:44:07.953Z,98656.86
2018-07-05T22:46:47.683Z,98658.91
2018-07-05T22:49:27.439Z,98654.74
2018-07-05T22:52:07.167Z,98657.77
2018-07-05T22:54:46.874Z,98659.33
2018-07-05T22:57:26.658Z,98658.53
2018-07-05T23:00:06.484Z,98657.55
2018-07-05T23:02:46.354Z,98656.90
2018-07-05T23:05:25.935Z,98655.19
2018-07-05T23:08:05.783Z,98656.75
2018-07-05T23:10:45.526Z,98658.95
2018-07-05T23:13:25.282Z,98656.08
2018-07-05T23:16:09.568Z,98652.16
2018-07-05T23:18:49.224Z,98653.20
2018-07-05T23:21:29.026Z,98651.13
2018-07-05T23:24:08.743Z,98651.80
2018-07-05T23:26:48.686Z,98651.13
2018-07-05T23:29:28.754Z,98648.41
2018-07-05T23:32:08.715Z,98642.89
2018-07-05T23:34:48.334Z,98650.19
2018-07-05T23:37:28.316Z,98647.51
2018-07-05T23:40:08.126Z,98645.22
2018-07-05T23:42:47.902Z,98647.10
2018-07-05T23:45:27.728Z,98649.66
2018-07-05T23:48:07.594Z,98649.31
2018-07-05T23:50:47.354Z,98650.34
2018-07-05T23:53:27.114Z,98650.02
2018-07-05T23:56:06.846Z,98649.00
2018-07-05T23:58:46.662Z,98645.36
